createdAt,value
2023-03-08T00:01:17.307Z,96.41
2023-03-08T00:03:44.854Z,96.39
2023-03-08T00:06:15.412Z,96.18
2023-03-08T00:08:43.650Z,96.37
2023-03-08T00:11:12.553Z,96.11
2023-03-08T00:13:40.310Z,95.90
2023-03-08T00:16:13.862Z,96.34
2023-03-08T00:18:41.542Z,96.44
2023-03-08T00:21:15.202Z,96.31
2023-03-08T00:23:43.453Z,96.04
2023-03-08T00:26:11.796Z,96.01
2023-03-08T00:28:39.536Z,96.15
2023-03-08T00:31:12.629Z,96.42
2023-03-08T00:33:41.507Z,96.22
2023-03-08T00:36:18.523Z,96.10
2023-03-08T00:38:46.526Z,96.40
2023-03-08T00:41:13.479Z,96.63
2023-03-08T00:43:42.364Z,96.46
2023-03-08T00:46:09.697Z,96.43
2023-03-08T00:48:36.629Z,96.33
2023-03-08T00:51:03.956Z,96.68
2023-03-08T00:53:31.114Z,96.84
2023-03-08T00:56:00.187Z,96.25
2023-03-08T00:58:29.706Z,96.68
2023-03-08T01:00:57.114Z,96.66
2023-03-08T01:03:24.508Z,96.61
2023-03-08T01:05:54.550Z,96.90
2023-03-08T01:11:16.785Z,96.61
2023-03-08T01:13:51.670Z,96.96
2023-03-08T01:16:35.610Z,97.23
2023-03-08T01:19:05.249Z,97.18
2023-03-08T01:21:36.299Z,96.92
2023-03-08T01:24:13.222Z,97.02
2023-03-08T01:26:41.313Z,97.34
2023-03-08T01:29:17.723Z,97.47
2023-03-08T01:32:03.571Z,97.20
2023-03-08T01:38:04.481Z,97.39
2023-03-08T01:41:00.871Z,97.54
2023-03-08T01:44:39.285Z,97.76
2023-03-08T01:56:58.158Z,98.07
2023-03-08T01:59:54.387Z,98.13
2023-03-08T02:06:20.237Z,97.90
2023-03-08T02:08:49.231Z,98.10
2023-03-08T02:11:25.360Z,98.10
2023-03-08T02:14:07.119Z,98.33
2023-03-08T02:16:45.071Z,98.41
2023-03-08T02:20:19.427Z,98.61
2023-03-08T02:23:53.817Z,98.48
2023-03-08T02:27:14.269Z,98.53
2023-03-08T02:29:41.474Z,98.54
2023-03-08T02:32:08.861Z,98.93
2023-03-08T02:34:36.252Z,98.95
2023-03-08T02:37:03.356Z,98.90
2023-03-08T02:39:30.294Z,98.90
2023-03-08T02:41:57.249Z,99.46
2023-03-08T02:44:24.279Z,99.42
2023-03-08T02:46:52.354Z,99.10
2023-03-08T02:49:19.273Z,99.00
2023-03-08T02:51:46.134Z,99.03
2023-03-08T02:54:14.042Z,99.07
2023-03-08T02:56:42.283Z,99.34
2023-03-08T02:59:09.214Z,99.15
2023-03-08T03:01:37.066Z,99.27
2023-03-08T03:04:04.187Z,99.62
2023-03-08T03:06:31.159Z,99.39
2023-03-08T03:08:58.097Z,99.42
2023-03-08T03:11:25.527Z,99.40
2023-03-08T03:14:00.732Z,99.91
2023-03-08T03:16:28.670Z,100.00
2023-03-08T03:18:56.868Z,100.00
2023-03-08T03:21:24.686Z,100.00
2023-03-08T03:23:51.683Z,100.00
2023-03-08T03:26:21.795Z,100.00
2023-03-08T03:28:49.418Z,100.00
2023-03-08T03:31:20.304Z,100.00
2023-03-08T03:33:48.685Z,100.00
2023-03-08T03:36:18.836Z,100.00
2023-03-08T03:38:48.034Z,100.00
2023-03-08T03:41:18.940Z,100.00
2023-03-08T03:43:46.452Z,100.00
2023-03-08T03:46:16.424Z,100.00
2023-03-08T03:48:44.010Z,100.00
2023-03-08T03:51:14.414Z,100.00
2023-03-08T03:53:42.050Z,100.00
2023-03-08T03:56:19.778Z,100.00
2023-03-08T03:58:47.594Z,100.00
2023-03-08T04:01:22.609Z,100.00
2023-03-08T04:03:49.930Z,100.00
2023-03-08T04:06:23.807Z,100.00
2023-03-08T04:08:54.646Z,100.00
2023-03-08T04:11:25.864Z,100.00
2023-03-08T04:13:52.704Z,100.00
2023-03-08T04:16:24.452Z,100.00
2023-03-08T04:18:56.626Z,100.00
2023-03-08T04:21:24.544Z,100.00
2023-03-08T04:23:51.784Z,100.00
2023-03-08T04:26:19.449Z,100.00
2023-03-08T04:28:46.365Z,100.00
2023-03-08T04:31:23.119Z,100.00
2023-03-08T04:33:50.784Z,100.00
2023-03-08T04:36:18.952Z,100.00
2023-03-08T04:38:47.598Z,100.00
2023-03-08T04:41:14.740Z,100.00
2023-03-08T04:43:47.604Z,100.00
2023-03-08T04:46:15.514Z,100.00
2023-03-08T04:48:42.412Z,99.63
2023-03-08T04:51:12.539Z,99.86
2023-03-08T04:53:41.458Z,99.41
2023-03-08T04:56:09.430Z,98.57
2023-03-08T04:58:37.382Z,99.17
2023-03-08T05:01:19.973Z,99.21
2023-03-08T05:03:49.605Z,98.66
2023-03-08T05:06:17.298Z,98.49
2023-03-08T05:08:44.670Z,98.67
2023-03-08T05:11:18.922Z,98.10
2023-03-08T05:13:45.936Z,98.73
2023-03-08T05:16:13.010Z,98.17
2023-03-08T05:18:39.929Z,98.07
2023-03-08T05:21:11.748Z,98.21
2023-03-08T05:23:38.608Z,98.33
2023-03-08T05:26:07.824Z,98.29
2023-03-08T05:28:37.125Z,97.96
2023-03-08T05:31:18.471Z,98.51
2023-03-08T05:33:47.190Z,99.00
2023-03-08T05:36:15.413Z,99.10
2023-03-08T05:38:42.805Z,98.60
2023-03-08T05:41:15.717Z,98.86
2023-03-08T05:43:43.145Z,99.10
2023-03-08T05:46:16.376Z,99.11
2023-03-08T05:48:43.430Z,99.41
2023-03-08T05:51:14.333Z,99.50
2023-03-08T05:53:42.411Z,99.83
2023-03-08T05:56:18.195Z,100.00
2023-03-08T05:58:48.006Z,100.00
2023-03-08T06:01:18.626Z,100.00
2023-03-08T06:03:48.292Z,100.00
2023-03-08T06:06:16.234Z,100.00
2023-03-08T06:08:43.465Z,100.00
2023-03-08T06:11:11.261Z,100.00
2023-03-08T06:13:38.338Z,100.00
2023-03-08T06:16:06.843Z,100.00
2023-03-08T06:18:38.002Z,100.00
2023-03-08T06:21:08.284Z,100.00
2023-03-08T06:23:36.332Z,100.00
2023-03-08T06:26:04.775Z,100.00
2023-03-08T06:28:32.638Z,100.00
2023-03-08T06:31:00.069Z,100.00
2023-03-08T06:33:30.723Z,100.00
2023-03-08T06:36:07.805Z,100.00
2023-03-08T06:38:37.552Z,100.00
2023-03-08T06:41:05.377Z,99.96
2023-03-08T06:43:32.967Z,98.62
2023-03-08T06:46:04.379Z,97.31
2023-03-08T06:48:31.271Z,95.69
2023-03-08T06:50:58.146Z,93.75
2023-03-08T06:53:25.030Z,91.65
2023-03-08T06:55:51.905Z,90.11
2023-03-08T06:58:19.605Z,88.52
2023-03-08T07:00:46.637Z,88.13
2023-03-08T07:03:13.977Z,86.87
2023-03-08T07:05:41.247Z,86.68
2023-03-08T07:08:08.521Z,85.86
2023-03-08T07:10:35.375Z,85.22
2023-03-08T07:13:02.604Z,84.78
2023-03-08T07:15:29.537Z,83.62
2023-03-08T07:17:57.581Z,82.37
2023-03-08T07:20:27.434Z,81.22
2023-03-08T07:22:55.027Z,79.85
2023-03-08T07:25:22.033Z,78.44
2023-03-08T07:27:48.938Z,76.98
2023-03-08T07:30:17.177Z,75.15
2023-03-08T07:32:44.362Z,74.12
2023-03-08T07:35:15.023Z,72.67
2023-03-08T07:37:46.182Z,71.21
2023-03-08T07:40:17.738Z,70.55
2023-03-08T07:42:44.925Z,69.91
2023-03-08T07:45:12.838Z,68.66
2023-03-08T07:47:40.833Z,67.55
2023-03-08T07:50:09.141Z,66.32
2023-03-08T07:52:36.096Z,65.18
2023-03-08T07:55:03.100Z,64.12
2023-03-08T07:57:30.026Z,63.07
2023-03-08T07:59:56.894Z,62.61
2023-03-08T08:02:23.857Z,61.79
2023-03-08T08:04:50.856Z,61.73
2023-03-08T08:07:17.914Z,61.67
2023-03-08T08:09:44.806Z,61.12
2023-03-08T08:12:11.765Z,60.48
2023-03-08T08:14:38.803Z,60.36
2023-03-08T08:17:06.042Z,60.26
2023-03-08T08:19:33.042Z,59.63
2023-03-08T08:22:00.638Z,59.12
2023-03-08T08:24:28.448Z,58.12
2023-03-08T08:26:55.337Z,57.74
2023-03-08T08:29:22.390Z,57.18
2023-03-08T08:31:49.323Z,56.75
2023-03-08T08:34:16.228Z,56.12
2023-03-08T08:36:43.150Z,56.18
2023-03-08T08:39:10.033Z,56.17
2023-03-08T08:41:36.954Z,56.68
2023-03-08T08:44:04.309Z,56.71
2023-03-08T08:46:34.074Z,56.83
2023-03-08T08:49:02.654Z,56.52
2023-03-08T08:51:29.530Z,56.49
2023-03-08T08:53:56.434Z,55.89
2023-03-08T08:56:28.528Z,54.88
2023-03-08T08:58:57.829Z,54.51
2023-03-08T09:01:29.838Z,54.39
2023-03-08T09:03:57.049Z,54.90
2023-03-08T09:06:25.403Z,54.50
2023-03-08T09:08:55.331Z,54.04
2023-03-08T09:11:24.535Z,54.06
2023-03-08T09:13:51.978Z,53.83
2023-03-08T09:16:26.151Z,52.94
2023-03-08T09:18:55.075Z,53.09
2023-03-08T09:21:21.940Z,53.27
2023-03-08T09:23:48.894Z,53.31
2023-03-08T09:26:15.770Z,53.43
2023-03-08T09:28:42.820Z,53.95
2023-03-08T09:31:15.862Z,54.38
2023-03-08T09:33:46.240Z,54.65
2023-03-08T09:36:13.307Z,55.25
2023-03-08T09:38:40.977Z,54.99
2023-03-08T09:41:21.711Z,55.25
2023-03-08T09:44:31.972Z,55.82
2023-03-08T09:47:26.267Z,56.26
2023-03-08T09:49:59.385Z,56.89
2023-03-08T09:52:38.369Z,56.71
2023-03-08T09:55:26.280Z,57.05
2023-03-08T09:57:58.581Z,57.59
2023-03-08T10:00:52.124Z,57.02
2023-03-08T10:03:50.321Z,56.43
2023-03-08T10:06:44.690Z,56.36
2023-03-08T10:09:41.849Z,55.49
2023-03-08T10:12:33.729Z,54.76
2023-03-08T10:15:14.347Z,54.53
2023-03-08T10:17:50.317Z,54.05
2023-03-08T10:20:37.412Z,53.48
2023-03-08T10:23:19.268Z,53.51
2023-03-08T10:25:48.310Z,54.36
2023-03-08T10:28:27.598Z,53.86
2023-03-08T10:30:58.995Z,54.55
2023-03-08T10:33:33.593Z,54.46
2023-03-08T10:36:24.402Z,54.66
2023-03-08T10:39:11.398Z,55.01
2023-03-08T10:41:46.326Z,55.51
2023-03-08T10:44:40.427Z,55.51
2023-03-08T10:47:29.667Z,55.47
2023-03-08T10:50:17.836Z,55.87
2023-03-08T10:52:47.553Z,56.21
2023-03-08T10:55:17.121Z,56.29
2023-03-08T10:58:21.401Z,55.45
2023-03-08T11:00:55.519Z,55.48
2023-03-08T11:03:25.471Z,56.00
2023-03-08T11:06:05.886Z,55.67
2023-03-08T11:08:40.648Z,55.79
2023-03-08T11:11:14.615Z,55.24
2023-03-08T11:13:47.139Z,55.13
2023-03-08T11:16:55.938Z,54.86
2023-03-08T11:19:59.889Z,55.07
2023-03-08T11:22:42.590Z,55.75
2023-03-08T11:25:09.421Z,55.96
2023-03-08T11:28:13.737Z,55.54
2023-03-08T11:31:02.163Z,55.72
2023-03-08T11:34:27.939Z,54.88
2023-03-08T11:37:36.833Z,56.34
2023-03-08T11:40:37.478Z,56.54
2023-03-08T11:43:32.137Z,56.56
2023-03-08T11:46:37.910Z,56.11
2023-03-08T11:49:34.641Z,56.33
2023-03-08T11:52:28.640Z,56.13
2023-03-08T11:55:16.774Z,56.83
2023-03-08T11:57:49.798Z,57.60
2023-03-08T12:00:30.916Z,57.00
2023-03-08T12:03:06.590Z,57.65
2023-03-08T12:05:40.363Z,57.64
2023-03-08T12:08:35.563Z,57.67
2023-03-08T12:11:18.947Z,57.77
2023-03-08T12:13:53.305Z,58.46
2023-03-08T12:16:51.599Z,58.36
2023-03-08T12:19:43.270Z,58.42
2023-03-08T12:22:42.585Z,58.16
2023-03-08T12:25:31.131Z,58.29
2023-03-08T12:28:26.961Z,58.08
2023-03-08T12:31:38.596Z,58.39
2023-03-08T12:34:35.632Z,57.98
2023-03-08T12:37:03.077Z,58.61
2023-03-08T12:39:37.268Z,58.50
2023-03-08T12:42:10.281Z,58.86
2023-03-08T12:44:38.276Z,58.55
2023-03-08T12:47:14.234Z,58.69
2023-03-08T12:49:46.105Z,58.52
2023-03-08T12:52:19.316Z,58.65
2023-03-08T12:55:08.991Z,58.66
2023-03-08T12:57:54.802Z,58.41
2023-03-08T13:00:35.729Z,58.52
2023-03-08T13:03:14.721Z,59.05
2023-03-08T13:05:47.786Z,59.66
2023-03-08T13:08:14.635Z,59.98
2023-03-08T13:11:04.317Z,59.66
2023-03-08T13:13:49.177Z,59.79
2023-03-08T13:16:16.026Z,60.33
2023-03-08T13:18:47.962Z,60.33
2023-03-08T13:21:35.813Z,60.38
2023-03-08T13:24:24.024Z,60.81
2023-03-08T13:27:56.847Z,60.36
2023-03-08T13:30:34.648Z,60.87
2023-03-08T13:33:07.264Z,61.01
2023-03-08T13:35:34.218Z,60.73
2023-03-08T13:38:01.296Z,61.66
2023-03-08T13:40:31.134Z,61.97
2023-03-08T13:43:09.468Z,61.95
2023-03-08T13:45:36.613Z,62.94
2023-03-08T13:48:08.803Z,64.17
2023-03-08T13:50:42.168Z,65.02
2023-03-08T13:53:19.809Z,66.13
2023-03-08T13:55:51.574Z,66.79
2023-03-08T13:58:35.869Z,67.65
2023-03-08T14:01:24.510Z,68.30
2023-03-08T14:03:55.028Z,68.69
2023-03-08T14:06:30.348Z,69.31
2023-03-08T14:09:03.565Z,69.94
2023-03-08T14:11:35.121Z,70.81
2023-03-08T14:14:04.922Z,71.57
2023-03-08T14:16:42.147Z,73.45
2023-03-08T14:19:15.006Z,75.08
2023-03-08T14:21:56.074Z,75.91
2023-03-08T14:24:26.932Z,76.90
2023-03-08T14:27:14.573Z,77.56
2023-03-08T14:29:44.298Z,78.16
2023-03-08T14:32:11.434Z,78.97
2023-03-08T14:34:49.613Z,79.26
2023-03-08T14:37:28.008Z,80.34
2023-03-08T14:40:13.765Z,81.00
2023-03-08T14:42:45.724Z,81.71
2023-03-08T14:45:35.770Z,82.33
2023-03-08T14:48:29.816Z,82.38
2023-03-08T14:50:57.973Z,82.93
2023-03-08T14:53:33.285Z,83.31
2023-03-08T14:56:03.584Z,83.73
2023-03-08T14:58:33.640Z,84.35
2023-03-08T15:01:02.408Z,84.64
2023-03-08T15:03:32.416Z,85.32
2023-03-08T15:06:22.115Z,86.14
2023-03-08T15:08:49.583Z,86.42
2023-03-08T15:11:16.878Z,86.79
2023-03-08T15:13:45.943Z,87.30
2023-03-08T15:16:14.467Z,87.46
2023-03-08T15:18:42.011Z,87.97
2023-03-08T15:21:17.085Z,88.22
2023-03-08T15:23:44.553Z,88.70
2023-03-08T15:26:20.914Z,89.26
2023-03-08T15:28:47.895Z,89.71
2023-03-08T15:31:14.828Z,89.65
2023-03-08T15:33:41.757Z,90.16
2023-03-08T15:36:15.246Z,90.70
2023-03-08T15:38:42.814Z,90.91
2023-03-08T15:41:17.247Z,90.93
2023-03-08T15:43:44.553Z,91.72
2023-03-08T15:46:15.263Z,91.82
2023-03-08T15:48:45.452Z,92.03
2023-03-08T15:51:23.962Z,91.98
2023-03-08T15:53:50.924Z,92.45
2023-03-08T15:56:17.952Z,92.21
2023-03-08T15:58:44.842Z,92.68
2023-03-08T16:01:11.950Z,92.82
2023-03-08T16:03:39.533Z,93.03
2023-03-08T16:06:14.619Z,93.14
2023-03-08T16:08:42.196Z,93.54
2023-03-08T16:11:11.790Z,93.97
2023-03-08T16:13:38.870Z,93.85
2023-03-08T16:16:07.451Z,94.25
2023-03-08T16:18:35.967Z,94.50
2023-03-08T16:21:08.948Z,94.76
2023-03-08T16:23:37.260Z,95.10
2023-03-08T16:26:16.456Z,95.02
2023-03-08T16:28:47.068Z,95.39
2023-03-08T16:31:15.904Z,95.74
2023-03-08T16:33:42.900Z,95.84
2023-03-08T16:36:12.191Z,96.29
2023-03-08T16:38:40.238Z,96.11
2023-03-08T16:41:13.157Z,95.86
2023-03-08T16:43:47.776Z,96.23
2023-03-08T16:46:21.953Z,96.64
2023-03-08T16:48:53.369Z,96.67
2023-03-08T16:51:23.208Z,96.89
2023-03-08T16:53:50.634Z,96.84
2023-03-08T16:56:29.055Z,97.00
2023-03-08T16:58:59.798Z,97.30
2023-03-08T17:01:26.923Z,97.42
2023-03-08T17:03:55.877Z,97.51
2023-03-08T17:06:27.934Z,97.63
2023-03-08T17:08:55.028Z,97.79
2023-03-08T17:11:33.723Z,97.84
2023-03-08T17:14:05.773Z,98.12
2023-03-08T17:16:33.762Z,98.18
2023-03-08T17:19:02.076Z,97.78
2023-03-08T17:21:29.830Z,98.06
2023-03-08T17:23:59.186Z,98.33
2023-03-08T17:26:26.243Z,98.46
2023-03-08T17:28:55.685Z,98.69
2023-03-08T17:31:23.680Z,98.70
2023-03-08T17:33:51.493Z,98.93
2023-03-08T17:36:19.200Z,98.90
2023-03-08T17:38:46.352Z,98.79
2023-03-08T17:41:15.620Z,99.20
2023-03-08T17:43:42.842Z,99.55
2023-03-08T17:46:19.287Z,99.45
2023-03-08T17:48:47.208Z,99.36
2023-03-08T17:51:18.168Z,99.30
2023-03-08T17:53:46.346Z,99.53
2023-03-08T17:56:17.341Z,100.00
2023-03-08T17:58:44.888Z,99.55
2023-03-08T18:01:16.150Z,99.49
2023-03-08T18:03:43.434Z,99.80
2023-03-08T18:06:41.779Z,99.80
2023-03-08T18:09:15.001Z,99.83
2023-03-08T18:11:43.756Z,99.72
2023-03-08T18:14:14.035Z,99.87
2023-03-08T18:16:42.538Z,99.90
2023-03-08T18:19:11.366Z,100.00
2023-03-08T18:21:41.284Z,100.00
2023-03-08T18:24:12.174Z,100.00
2023-03-08T18:26:39.121Z,100.00
2023-03-08T18:29:05.982Z,100.00
2023-03-08T18:31:35.044Z,100.00
2023-03-08T18:34:02.809Z,100.00
2023-03-08T18:36:30.008Z,100.00
2023-03-08T18:38:57.081Z,100.00
2023-03-08T18:41:28.197Z,100.00
2023-03-08T18:43:57.045Z,100.00
2023-03-08T18:46:29.477Z,100.00
2023-03-08T18:49:10.187Z,100.00
2023-03-08T18:51:39.811Z,100.00
2023-03-08T18:54:09.149Z,100.00
2023-03-08T18:56:36.279Z,100.00
2023-03-08T18:59:05.995Z,100.00
2023-03-08T19:01:33.744Z,100.00
2023-03-08T19:04:03.959Z,100.00
2023-03-08T19:06:30.846Z,100.00
2023-03-08T19:08:57.890Z,100.00
2023-03-08T19:11:27.708Z,100.00
2023-03-08T19:13:55.276Z,100.00
2023-03-08T19:16:24.867Z,100.00
2023-03-08T19:18:57.152Z,100.00
2023-03-08T19:21:29.234Z,100.00
2023-03-08T19:23:56.864Z,100.00
2023-03-08T19:26:36.821Z,100.00
2023-03-08T19:29:18.233Z,100.00
2023-03-08T19:31:49.930Z,100.00
2023-03-08T19:34:18.325Z,100.00
2023-03-08T19:36:46.881Z,100.00
2023-03-08T19:39:17.723Z,100.00
2023-03-08T19:41:44.672Z,100.00
2023-03-08T19:44:11.551Z,100.00
2023-03-08T19:46:40.031Z,100.00
2023-03-08T19:49:10.766Z,100.00
2023-03-08T19:51:37.653Z,100.00
2023-03-08T19:54:06.702Z,100.00
2023-03-08T19:56:34.139Z,100.00
2023-03-08T19:59:01.648Z,100.00
2023-03-08T20:01:28.894Z,100.00
2023-03-08T20:03:55.958Z,100.00
2023-03-08T20:06:33.530Z,100.00
2023-03-08T20:09:02.467Z,100.00
2023-03-08T20:11:30.010Z,100.00
2023-03-08T20:13:56.967Z,100.00
2023-03-08T20:16:25.162Z,100.00
2023-03-08T20:18:52.724Z,100.00
2023-03-08T20:21:20.934Z,100.00
2023-03-08T20:23:55.005Z,100.00
2023-03-08T20:26:31.316Z,100.00
2023-03-08T20:28:59.242Z,100.00
2023-03-08T20:31:28.728Z,100.00
2023-03-08T20:33:55.850Z,100.00
2023-03-08T20:36:23.715Z,100.00
2023-03-08T20:38:50.679Z,100.00
2023-03-08T20:41:20.543Z,100.00
2023-03-08T20:43:49.822Z,100.00
2023-03-08T20:46:19.205Z,100.00
2023-03-08T20:48:46.843Z,100.00
2023-03-08T20:51:17.033Z,100.00
2023-03-08T20:53:44.330Z,100.00
2023-03-08T20:56:16.414Z,100.00
2023-03-08T20:58:43.827Z,100.00
2023-03-08T21:01:17.760Z,100.00
2023-03-08T21:03:46.230Z,100.00
2023-03-08T21:06:23.152Z,100.00
2023-03-08T21:08:50.989Z,100.00
2023-03-08T21:11:18.607Z,100.00
2023-03-08T21:13:47.610Z,100.00
2023-03-08T21:16:18.044Z,100.00
2023-03-08T21:18:49.666Z,100.00
2023-03-08T21:21:35.765Z,100.00
2023-03-08T21:24:10.604Z,100.00
2023-03-08T21:26:37.686Z,100.00
2023-03-08T21:29:08.598Z,100.00
2023-03-08T21:31:37.661Z,100.00
2023-03-08T21:34:06.321Z,100.00
2023-03-08T21:36:34.583Z,100.00
2023-03-08T21:39:01.460Z,100.00
2023-03-08T21:41:32.490Z,100.00
2023-03-08T21:44:02.204Z,100.00
2023-03-08T21:46:29.351Z,100.00
2023-03-08T21:48:56.926Z,100.00
2023-03-08T21:51:24.181Z,100.00
2023-03-08T21:53:51.144Z,100.00
2023-03-08T21:56:18.605Z,100.00
2023-03-08T21:58:46.136Z,100.00
2023-03-08T22:01:31.848Z,100.00
2023-03-08T22:04:00.638Z,100.00
2023-03-08T22:06:28.627Z,100.00
2023-03-08T22:08:56.130Z,100.00
2023-03-08T22:11:25.059Z,100.00
2023-03-08T22:13:55.414Z,100.00
2023-03-08T22:16:22.637Z,100.00
2023-03-08T22:18:53.849Z,100.00
2023-03-08T22:21:21.662Z,100.00
2023-03-08T22:23:53.762Z,100.00
2023-03-08T22:26:22.268Z,100.00
2023-03-08T22:28:49.476Z,100.00
2023-03-08T22:31:20.232Z,100.00
2023-03-08T22:33:47.805Z,100.00
2023-03-08T22:36:17.317Z,100.00
2023-03-08T22:38:44.251Z,100.00
2023-03-08T22:41:23.835Z,100.00
2023-03-08T22:43:51.560Z,100.00
2023-03-08T22:46:23.406Z,100.00
2023-03-08T22:48:52.486Z,100.00
2023-03-08T22:51:21.674Z,100.00
2023-03-08T22:53:48.835Z,100.00
2023-03-08T22:56:21.812Z,100.00
2023-03-08T22:58:49.577Z,100.00
2023-03-08T23:01:20.723Z,100.00
2023-03-08T23:03:49.506Z,100.00
2023-03-08T23:06:19.585Z,100.00
2023-03-08T23:08:47.216Z,100.00
2023-03-08T23:11:14.384Z,100.00
2023-03-08T23:13:41.859Z,100.00
2023-03-08T23:16:12.977Z,100.00
2023-03-08T23:18:40.310Z,100.00
2023-03-08T23:21:11.736Z,100.00
2023-03-08T23:23:38.987Z,100.00
2023-03-08T23:26:09.912Z,100.00
2023-03-08T23:28:37.134Z,100.00
2023-03-08T23:31:16.625Z,100.00
2023-03-08T23:33:44.535Z,100.00
2023-03-08T23:36:14.225Z,100.00
2023-03-08T23:38:41.385Z,100.00
2023-03-08T23:41:10.238Z,100.00
2023-03-08T23:43:38.657Z,100.00
2023-03-08T23:46:08.968Z,100.00
2023-03-08T23:48:36.521Z,100.00
2023-03-08T23:51:06.446Z,100.00
2023-03-08T23:53:34.139Z,100.00
2023-03-08T23:56:01.629Z,100.00
2023-03-08T23:58:28.682Z,100.00
